LFST

Strasbourg Airport

Airport
ICAO code
LFST
IATA Code
SXB
Summary
ICAO Region
EUR
ICAO Territory
Location

, Alsace

Serving
Strasbourg
Elevation
505 ft
Coordinates
48° 32' 18" N , 7° 37' 42" E
Metar
Observation
LFST 152230Z AUTO VRB02KT CAVOK 19/16 Q1010 NOSIG
Station
Strasbourg
Date/Time
2022-08-15 22:30:00
Wind speed
02 kts
Lowest cloud amount
clouds and visibility OK
Temperature
19°C
Dew point
16°C
Humidity
82%
QNH
1010 hPa
Weather condition
n/a

Runways

Designator Length Width Surface Rops
5/23 2400 45 ASP Yes/Yes

Airport map

Aerial View

SKYbrary Partners:

Safety knowledge contributed by: